Time;durP1;ratioP1;P1;durP2;ratioP2;P2;SDS_P1;SDS_P2;PMS_P1;PMS_P2;Temp;Humidity;BMP_temperature;BMP_pressure;BME280_temperature;BME280_humidity;BME280_pressure;Samples;Min_cycle;Max_cycle;Signal;HPM_P1;HPM_P2
2021/09/23 00:00:53;;;;;;;89.30;36.48;;;;;;;9.90;85.96;97170.52;1697749;84;21000;-80
2021/09/23 00:05:54;;;;;;;29.35;17.90;;;;;;;9.85;85.70;97161.59;1689861;84;21031;-80
2021/09/23 00:08:20;;;;;;;21.35;15.10;;;;;;;9.78;85.79;97156.23;1685150;84;21061;-80
2021/09/23 00:10:46;;;;;;;20.12;14.78;;;;;;;9.74;85.95;97140.63;1696035;84;21063;-80
2021/09/23 00:13:12;;;;;;;26.55;16.25;;;;;;;9.69;86.04;97141.59;1695299;84;21110;-80
2021/09/23 00:15:39;;;;;;;19.92;13.80;;;;;;;9.71;86.30;97142.73;1685610;84;21541;-80
2021/09/23 00:18:10;;;;;;;19.12;13.78;;;;;;;9.74;86.49;97139.33;1681630;84;21025;-80
2021/09/23 00:20:39;;;;;;;18.35;13.80;;;;;;;9.77;86.46;97138.23;1701123;83;21085;-80
2021/09/23 00:23:05;;;;;;;17.48;13.88;;;;;;;9.80;86.43;97127.52;1662037;84;21120;-80
2021/09/23 00:25:32;;;;;;;19.00;14.50;;;;;;;9.79;86.66;97129.31;1681213;84;21099;-81
2021/09/23 00:27:59;;;;;;;16.70;13.35;;;;;;;9.80;86.62;97132.72;1668003;84;21027;-80
2021/09/23 00:30:25;;;;;;;17.17;13.25;;;;;;;9.80;86.77;97126.23;1690811;84;21005;-80
2021/09/23 00:32:50;;;;;;;16.67;12.13;;;;;;;9.80;86.51;97121.84;1697253;84;21031;-80
2021/09/23 00:35:17;;;;;;;18.85;12.55;;;;;;;9.76;86.42;97119.70;1695946;84;21091;-80
2021/09/23 00:37:43;;;;;;;17.73;13.58;;;;;;;9.77;86.64;97117.47;1683797;83;21055;-80
2021/09/23 00:40:10;;;;;;;16.67;12.18;;;;;;;9.78;86.79;97119.91;1680967;83;21479;-80
2021/09/23 00:42:37;;;;;;;16.32;12.25;;;;;;;9.78;86.79;97121.69;1690950;83;21001;-80
2021/09/23 00:45:04;;;;;;;16.20;12.13;;;;;;;9.75;86.76;97115.00;1676603;84;21109;-80
2021/09/23 00:47:30;;;;;;;18.23;12.82;;;;;;;9.75;87.02;97105.11;1682630;84;21411;-80
2021/09/23 00:49:56;;;;;;;16.80;12.50;;;;;;;9.72;86.74;97101.05;1674037;84;21031;-80
2021/09/23 00:52:25;;;;;;;21.55;12.65;;;;;;;9.69;86.81;97107.86;1679932;84;21033;-80
2021/09/23 00:54:49;;;;;;;15.80;11.88;;;;;;;9.71;87.10;97111.11;1688014;83;21046;-80
2021/09/23 00:57:17;;;;;;;20.55;13.98;;;;;;;9.74;87.18;97109.97;1694143;83;21051;-80
2021/09/23 00:59:45;;;;;;;19.65;13.65;;;;;;;9.75;87.12;97111.59;1624096;87;21102;-80
2021/09/23 01:02:11;;;;;;;23.92;15.43;;;;;;;9.75;87.32;97105.11;1677685;84;21018;-80
2021/09/23 01:04:42;;;;;;;18.98;13.98;;;;;;;9.74;87.25;97106.89;1670308;84;20993;-80
2021/09/23 01:07:04;;;;;;;19.87;14.80;;;;;;;9.74;86.91;97109.97;1673462;84;21009;-80
2021/09/23 01:09:37;;;;;;;17.15;13.03;;;;;;;9.71;86.73;97111.11;1693185;83;21052;-80
2021/09/23 01:12:03;;;;;;;19.48;15.03;;;;;;;9.69;86.78;97109.16;1701578;83;21030;-80
2021/09/23 01:14:30;;;;;;;19.62;14.78;;;;;;;9.69;86.91;97102.67;1688910;83;21036;-80
2021/09/23 01:16:55;;;;;;;24.32;16.27;;;;;;;9.71;87.08;97103.32;1686499;83;21469;-80
2021/09/23 01:19:21;;;;;;;21.10;14.43;;;;;;;9.74;87.05;97100.89;1696943;83;21033;-80
2021/09/23 01:21:47;;;;;;;29.82;16.87;;;;;;;9.74;87.06;97100.89;1671700;84;21025;-80
2021/09/23 01:24:12;;;;;;;38.15;21.02;;;;;;;9.75;86.93;97096.02;1673653;84;21032;-80
2021/09/23 01:26:38;;;;;;;45.90;26.35;;;;;;;9.76;86.91;97095.89;1695770;83;21066;-80
2021/09/23 01:29:04;;;;;;;35.98;21.77;;;;;;;9.81;86.89;97088.43;1704260;83;21458;-80
2021/09/23 01:31:29;;;;;;;34.18;21.23;;;;;;;9.80;86.69;97086.81;1704933;84;21072;-81
2021/09/23 01:33:55;;;;;;;24.50;16.97;;;;;;;9.77;86.56;97079.34;1687069;83;21095;-80
2021/09/23 01:36:21;;;;;;;21.02;15.28;;;;;;;9.77;86.75;97076.75;1680850;83;21041;-80
2021/09/23 01:38:52;;;;;;;21.20;13.75;;;;;;;9.74;86.91;97073.64;1677663;84;21061;-80
2021/09/23 01:41:17;;;;;;;20.37;13.50;;;;;;;9.79;87.03;97071.41;1694209;84;21012;-80
2021/09/23 01:43:44;;;;;;;17.12;11.90;;;;;;;9.77;86.53;97066.86;1695610;84;21033;-80
2021/09/23 01:46:10;;;;;;;29.37;18.50;;;;;;;9.71;86.31;97073.48;1673210;84;21107;-80
2021/09/23 01:48:36;;;;;;;36.00;25.48;;;;;;;9.66;86.58;97066.66;1648930;84;21458;-80
2021/09/23 01:51:01;;;;;;;33.67;22.35;;;;;;;9.67;86.73;97068.77;1679970;84;21071;-80
2021/09/23 01:53:28;;;;;;;36.05;21.93;;;;;;;9.67;86.74;97064.88;1687481;83;21083;-80
2021/09/23 01:55:53;;;;;;;28.62;18.75;;;;;;;9.67;86.75;97068.77;1689557;84;21033;-80
2021/09/23 01:58:19;;;;;;;17.40;12.28;;;;;;;9.69;86.80;97067.64;1682691;84;21450;-80
2021/09/23 02:00:45;;;;;;;15.78;10.78;;;;;;;9.70;86.54;97060.66;1686654;84;22596;-80
2021/09/23 02:03:10;;;;;;;19.05;12.35;;;;;;;9.67;86.82;97060.50;1688818;83;21154;-80
2021/09/23 02:05:37;;;;;;;19.98;13.65;;;;;;;9.65;86.65;97054.66;1667486;85;21041;-80
2021/09/23 02:08:03;;;;;;;16.95;12.25;;;;;;;9.61;86.83;97042.98;1672332;83;21561;-80
2021/09/23 02:10:29;;;;;;;17.20;10.78;;;;;;;9.59;87.08;97045.71;1661016;84;21080;-80
2021/09/23 02:12:55;;;;;;;16.40;11.05;;;;;;;9.58;87.07;97041.98;1684788;84;21041;-80
2021/09/23 02:15:22;;;;;;;14.55;10.32;;;;;;;9.60;86.96;97049.15;1679298;84;21471;-80
2021/09/23 02:17:47;;;;;;;16.17;11.00;;;;;;;9.61;87.07;97040.39;1703427;84;21387;-80
2021/09/23 02:20:13;;;;;;;17.82;12.25;;;;;;;9.63;87.05;97031.96;1679969;83;21016;-80
2021/09/23 02:22:39;;;;;;;17.65;12.07;;;;;;;9.58;86.72;97021.23;1669472;84;21082;-80
2021/09/23 02:25:05;;;;;;;18.30;12.65;;;;;;;9.54;86.53;97012.15;1687601;84;21035;-80
2021/09/23 02:27:31;;;;;;;14.63;11.20;;;;;;;9.51;86.75;97009.39;1691568;84;21088;-80
2021/09/23 02:29:57;;;;;;;19.12;12.58;;;;;;;9.48;86.59;97011.50;1681952;84;21051;-80
2021/09/23 02:32:23;;;;;;;15.75;11.50;;;;;;;9.46;86.52;97008.26;1684043;83;21475;-80
2021/09/23 02:34:48;;;;;;;16.00;10.75;;;;;;;9.47;86.54;97013.77;1681847;84;21054;-80
2021/09/23 02:37:14;;;;;;;16.05;10.20;;;;;;;9.47;86.82;97016.36;1669226;83;21121;-80
2021/09/23 02:39:40;;;;;;;14.00;10.88;;;;;;;9.47;87.03;97008.58;1665347;84;21037;-80
2021/09/23 02:42:05;;;;;;;15.68;10.63;;;;;;;9.44;87.12;97003.72;1679963;84;20974;-80
2021/09/23 02:44:32;;;;;;;15.48;10.68;;;;;;;9.47;87.32;97004.20;1672262;84;21055;-80
2021/09/23 02:46:58;;;;;;;15.28;10.10;;;;;;;9.45;86.87;96997.07;1666448;85;21505;-80
2021/09/23 02:49:24;;;;;;;13.78;9.95;;;;;;;9.46;87.12;97005.66;1692901;84;21012;-80
2021/09/23 02:51:49;;;;;;;16.85;11.18;;;;;;;9.45;86.75;97004.85;1681664;83;21092;-80
2021/09/23 02:54:16;;;;;;;15.32;11.75;;;;;;;9.44;86.79;97016.69;1689143;83;21083;-80
2021/09/23 02:56:41;;;;;;;18.62;13.22;;;;;;;9.45;86.95;97019.60;1665093;84;20990;-80
2021/09/23 02:59:07;;;;;;;22.30;16.17;;;;;;;9.51;87.05;97012.47;1680733;84;21370;-80
2021/09/23 03:01:33;;;;;;;16.07;12.03;;;;;;;9.55;86.78;96996.91;1692956;84;21009;-80
2021/09/23 03:03:58;;;;;;;16.27;11.38;;;;;;;9.59;87.02;97000.31;1681272;84;21029;-80
2021/09/23 03:06:24;;;;;;;14.90;10.50;;;;;;;9.64;87.08;97002.45;1703962;83;21298;-80
2021/09/23 03:08:50;;;;;;;14.10;10.05;;;;;;;9.66;86.76;96987.52;1683482;83;20992;-80
2021/09/23 03:11:16;;;;;;;15.13;10.23;;;;;;;9.62;86.86;96993.53;1670503;84;21008;-80
2021/09/23 03:13:42;;;;;;;13.43;10.65;;;;;;;9.61;86.69;97002.28;1692907;84;21007;-80
2021/09/23 03:16:08;;;;;;;15.43;11.50;;;;;;;9.62;86.56;96998.72;1696117;84;21059;-80
2021/09/23 03:18:34;;;;;;;14.93;10.28;;;;;;;9.62;86.49;96996.13;1692055;83;21040;-79
2021/09/23 03:21:00;;;;;;;14.50;12.85;;;;;;;9.62;86.63;96994.02;1697122;84;21431;-80
2021/09/23 03:23:26;;;;;;;15.15;11.30;;;;;;;9.60;86.42;96985.09;1685362;84;21043;-80
2021/09/23 03:25:51;;;;;;;13.95;10.78;;;;;;;9.59;86.45;96986.52;1653991;85;21024;-80
2021/09/23 03:28:18;;;;;;;14.30;10.48;;;;;;;9.58;86.39;96996.58;1653672;85;20989;-80
2021/09/23 03:30:44;;;;;;;11.48;8.70;;;;;;;9.61;86.52;97004.87;1685850;84;20992;-80
2021/09/23 03:33:11;;;;;;;15.58;10.55;;;;;;;9.62;86.49;97003.91;1696009;83;21408;-80
2021/09/23 03:35:36;;;;;;;11.88;9.38;;;;;;;9.65;86.46;97003.25;1670905;84;21076;-80
2021/09/23 03:38:04;;;;;;;11.18;8.55;;;;;;;9.65;86.42;96997.58;1682794;84;21078;-81
2021/09/23 03:40:30;;;;;;;9.60;8.10;;;;;;;9.69;86.92;96999.36;1663123;84;21455;-80
2021/09/23 03:42:55;;;;;;;11.97;8.50;;;;;;;9.74;87.16;96994.48;1691179;83;21071;-80
2021/09/23 03:45:23;;;;;;;11.78;8.80;;;;;;;9.76;87.14;96992.08;1669716;84;21038;-80
2021/09/23 03:47:50;;;;;;;9.85;7.67;;;;;;;9.76;86.75;96992.54;1674916;85;21067;-80
2021/09/23 03:50:16;;;;;;;10.03;7.10;;;;;;;9.75;86.27;96992.22;1644413;86;20988;-80
2021/09/23 03:52:42;;;;;;;10.28;8.03;;;;;;;9.77;86.78;96992.41;1645469;86;21018;-80
2021/09/23 03:55:09;;;;;;;11.60;9.60;;;;;;;9.77;85.72;96991.11;1682371;83;21076;-80
2021/09/23 03:57:34;;;;;;;16.42;11.43;;;;;;;9.76;86.04;96992.54;1681547;84;21008;-80
2021/09/23 04:00:00;;;;;;;10.82;8.50;;;;;;;9.79;86.15;96985.75;1685211;84;21457;-80
2021/09/23 04:02:26;;;;;;;13.85;7.87;;;;;;;9.77;85.88;96979.92;1678886;83;21055;-80
2021/09/23 04:04:52;;;;;;;11.05;8.05;;;;;;;9.76;86.25;96978.27;1649072;84;20958;-80
2021/09/23 04:07:17;;;;;;;8.35;6.80;;;;;;;9.78;86.59;96973.75;1669865;84;22111;-81
2021/09/23 04:09:43;;;;;;;8.33;6.72;;;;;;;9.81;86.76;96974.72;1676765;84;21419;-80
2021/09/23 04:12:09;;;;;;;7.33;6.35;;;;;;;9.80;86.09;96971.31;1681838;83;20985;-80
2021/09/23 04:14:35;;;;;;;8.28;6.53;;;;;;;9.79;85.99;96976.18;1679160;83;21010;-80
2021/09/23 04:17:00;;;;;;;10.85;6.62;;;;;;;9.78;86.16;96968.08;1675990;84;21096;-80
2021/09/23 04:19:26;;;;;;;7.40;6.05;;;;;;;9.77;86.46;96970.34;1678170;83;20999;-80
2021/09/23 04:21:52;;;;;;;8.18;6.87;;;;;;;9.79;86.06;96968.88;1686287;84;21407;-80
2021/09/23 04:24:18;;;;;;;7.85;6.35;;;;;;;9.77;85.95;96970.34;1678601;84;21059;-80
2021/09/23 04:26:44;;;;;;;7.17;5.30;;;;;;;9.80;85.83;96971.31;1686228;84;21276;-80
2021/09/23 04:29:10;;;;;;;6.97;5.28;;;;;;;9.80;85.73;96973.91;1681652;83;22290;-80
2021/09/23 04:31:35;;;;;;;6.90;6.20;;;;;;;9.79;85.34;96963.69;1685706;84;21076;-80
2021/09/23 04:34:01;;;;;;;12.50;8.73;;;;;;;9.75;85.39;96963.67;1689210;83;21035;-80
2021/09/23 04:36:27;;;;;;;18.23;12.37;;;;;;;9.75;85.46;96964.48;1703923;84;21044;-81
2021/09/23 04:38:53;;;;;;;8.95;5.87;;;;;;;9.77;85.67;96957.86;1697267;83;21051;-80
2021/09/23 04:41:19;;;;;;;8.68;5.85;;;;;;;9.78;85.34;96956.39;1684019;84;21484;-80
2021/09/23 04:43:47;;;;;;;7.60;5.97;;;;;;;9.81;85.46;96955.25;1672102;84;21458;-80
2021/09/23 04:46:12;;;;;;;11.15;9.93;;;;;;;9.82;85.30;96960.77;1683326;84;21060;-80
2021/09/23 04:48:38;;;;;;;11.68;10.38;;;;;;;9.80;85.39;96954.93;1693060;84;21711;-80
2021/09/23 04:51:04;;;;;;;9.95;7.72;;;;;;;9.80;85.66;96958.34;1683985;83;21063;-80
2021/09/23 04:53:30;;;;;;;11.85;8.95;;;;;;;9.82;85.50;96963.36;1663129;85;21400;-80
2021/09/23 04:55:56;;;;;;;10.90;8.73;;;;;;;9.86;85.50;96963.36;1675141;84;21027;-80
2021/09/23 04:58:22;;;;;;;15.63;10.90;;;;;;;9.91;85.82;96961.88;1677971;84;21068;-80
2021/09/23 05:00:47;;;;;;;14.03;10.25;;;;;;;9.98;85.59;96967.73;1676836;84;21039;-80
2021/09/23 05:03:14;;;;;;;22.48;12.75;;;;;;;9.98;85.19;96965.95;1686856;84;21017;-80
2021/09/23 05:05:40;;;;;;;21.93;12.98;;;;;;;10.00;85.26;96966.59;1690937;83;21011;-80
2021/09/23 05:08:06;;;;;;;12.55;8.95;;;;;;;10.04;85.51;96956.69;1689547;84;21009;-80
2021/09/23 05:10:35;;;;;;;44.93;24.10;;;;;;;10.02;85.30;96950.36;1698256;83;21391;-80
2021/09/23 05:13:03;;;;;;;15.10;9.00;;;;;;;10.04;85.28;96949.71;1685183;84;22145;-80
2021/09/23 05:15:29;;;;;;;11.40;7.70;;;;;;;10.10;85.55;96941.77;1683900;84;21013;-81
2021/09/23 05:17:54;;;;;;;9.33;6.30;;;;;;;10.17;85.44;96953.91;1682279;84;21442;-80
2021/09/23 05:20:20;;;;;;;16.10;11.53;;;;;;;10.20;84.94;96957.47;1671827;84;21068;-80
2021/09/23 05:22:46;;;;;;;20.17;14.83;;;;;;;10.27;85.38;96951.67;1675148;83;21045;-80
2021/09/23 05:25:12;;;;;;;12.25;8.08;;;;;;;10.31;85.80;96956.36;1667594;84;21089;-80
2021/09/23 05:27:39;;;;;;;8.58;7.58;;;;;;;10.30;85.40;96956.04;1657019;85;21063;-80
2021/09/23 05:30:06;;;;;;;10.25;6.78;;;;;;;10.33;85.58;96951.00;1683346;84;21000;-80
2021/09/23 05:32:32;;;;;;;8.80;6.62;;;;;;;10.37;84.92;96947.08;1689319;83;21042;-81
2021/09/23 05:34:58;;;;;;;21.75;14.68;;;;;;;10.38;84.54;96949.52;1672619;85;21033;-80
2021/09/23 05:37:24;;;;;;;17.32;9.70;;;;;;;10.36;84.44;96950.17;1663881;85;21008;-80
2021/09/23 05:39:49;;;;;;;18.17;11.88;;;;;;;10.36;84.45;96948.06;1691923;84;21093;-81
2021/09/23 05:42:15;;;;;;;19.65;13.80;;;;;;;10.33;84.61;96953.11;1650800;84;21080;-80
2021/09/23 05:44:41;;;;;;;43.87;26.77;;;;;;;10.32;84.44;96952.78;1694106;83;21401;-80
2021/09/23 05:47:07;;;;;;;41.95;26.48;;;;;;;10.33;84.44;96947.91;1678841;84;21072;-80
2021/09/23 05:49:33;;;;;;;27.42;18.60;;;;;;;10.36;84.55;96961.86;1700102;84;21117;-80
2021/09/23 05:51:59;;;;;;;13.78;10.45;;;;;;;10.40;84.70;96961.03;1666971;83;21170;-80
2021/09/23 05:54:26;;;;;;;14.70;9.40;;;;;;;10.40;84.78;96963.62;1657507;86;21102;-81
2021/09/23 05:56:53;;;;;;;12.78;9.93;;;;;;;10.36;84.41;96956.66;1681241;83;21007;-80
2021/09/23 05:59:18;;;;;;;7.35;5.40;;;;;;;10.40;84.44;96960.55;1684398;84;21065;-80
2021/09/23 06:01:44;;;;;;;15.58;9.53;;;;;;;10.49;84.44;96954.85;1691477;84;21040;-80
2021/09/23 06:04:10;;;;;;;18.87;9.80;;;;;;;10.58;84.51;96949.97;1674900;84;21064;-81
2021/09/23 06:06:36;;;;;;;22.70;17.65;;;;;;;10.66;84.35;96943.42;1693758;83;21092;-80
2021/09/23 06:09:03;;;;;;;20.43;16.82;;;;;;;10.71;84.00;96946.32;1674393;84;21068;-81
2021/09/23 06:11:30;;;;;;;24.37;15.38;;;;;;;10.80;84.06;96948.41;1702776;83;21056;-80
2021/09/23 06:13:56;;;;;;;18.75;11.73;;;;;;;10.86;84.27;96937.81;1676779;84;21470;-80
2021/09/23 06:16:21;;;;;;;10.80;7.72;;;;;;;10.97;83.80;96941.34;1675576;84;21092;-80
2021/09/23 06:18:47;;;;;;;11.40;7.08;;;;;;;11.01;83.57;96939.53;1669838;84;21108;-80
2021/09/23 06:21:13;;;;;;;7.58;6.67;;;;;;;11.06;83.04;96933.80;1683327;83;20969;-80
2021/09/23 06:23:39;;;;;;;13.43;7.62;;;;;;;11.08;82.92;96929.27;1673209;84;21100;-80
2021/09/23 06:26:05;;;;;;;8.38;5.65;;;;;;;11.08;82.82;96920.16;1682694;83;21134;-80
2021/09/23 06:28:31;;;;;;;29.55;13.98;;;;;;;11.05;82.74;96917.39;1685433;84;21044;-80
2021/09/23 06:30:59;;;;;;;10.18;6.33;;;;;;;11.08;82.88;96909.77;1685576;84;21056;-80
2021/09/23 06:33:25;;;;;;;10.43;7.80;;;;;;;11.07;82.73;96915.45;1703623;84;22164;-81
2021/09/23 06:35:51;;;;;;;9.60;5.72;;;;;;;11.10;82.58;96918.20;1682826;84;21102;-80
2021/09/23 06:38:17;;;;;;;10.98;6.10;;;;;;;11.12;82.75;96920.95;1670771;83;21031;-80
2021/09/23 06:40:42;;;;;;;8.03;6.30;;;;;;;11.17;82.77;96924.81;1672611;84;21085;-80
2021/09/23 06:43:08;;;;;;;8.33;4.60;;;;;;;11.16;82.60;96924.00;1694638;84;21078;-80
2021/09/23 06:45:34;;;;;;;8.45;4.42;;;;;;;11.17;82.84;96926.11;1676242;84;20997;-80
2021/09/23 06:48:00;;;;;;;7.90;4.58;;;;;;;11.17;82.50;96922.22;1674793;84;21074;-80
2021/09/23 06:50:26;;;;;;;9.13;4.45;;;;;;;11.20;82.37;96921.86;1683484;84;21510;-80
2021/09/23 06:52:52;;;;;;;6.10;3.58;;;;;;;11.26;82.78;96927.70;1685576;84;22124;-81
2021/09/23 06:55:18;;;;;;;7.25;4.12;;;;;;;11.31;82.25;96924.89;1675725;84;20998;-80
2021/09/23 06:57:44;;;;;;;5.83;3.95;;;;;;;11.37;82.66;96924.67;1687146;84;20993;-81
2021/09/23 07:00:11;;;;;;;6.95;5.08;;;;;;;11.43;82.20;96922.70;1702462;84;21030;-80
2021/09/23 07:02:37;;;;;;;7.45;4.28;;;;;;;11.43;82.12;96922.70;1686653;84;20962;-80
2021/09/23 07:05:04;;;;;;;6.70;4.17;;;;;;;11.46;82.00;96924.95;1696393;84;21020;-80
2021/09/23 07:07:31;;;;;;;6.83;3.77;;;;;;;11.45;81.32;96919.43;1663408;84;21121;-81
2021/09/23 07:09:59;;;;;;;6.87;3.98;;;;;;;11.42;81.82;96924.50;1677058;84;21545;-80
2021/09/23 07:12:24;;;;;;;6.83;3.87;;;;;;;11.39;81.39;96919.64;1679199;84;20988;-81
2021/09/23 07:14:50;;;;;;;5.75;2.70;;;;;;;11.32;80.81;96909.59;1627238;87;21481;-80
2021/09/23 07:17:16;;;;;;;6.62;3.30;;;;;;;11.28;81.53;96901.83;1622051;86;21170;-81
2021/09/23 07:19:41;;;;;;;6.87;2.47;;;;;;;11.27;81.61;96908.02;1645332;86;21159;-80
2021/09/23 07:22:08;;;;;;;6.25;3.40;;;;;;;11.30;81.26;96905.55;1622971;86;21421;-80
2021/09/23 07:24:35;;;;;;;5.62;3.10;;;;;;;11.37;81.50;96906.46;1643995;85;21115;-80
2021/09/23 07:27:00;;;;;;;7.30;3.20;;;;;;;11.40;81.18;96905.65;1655778;85;21074;-80
2021/09/23 07:29:27;;;;;;;5.97;3.00;;;;;;;11.42;80.80;96893.27;1639967;85;21517;-80
2021/09/23 07:31:53;;;;;;;5.03;2.50;;;;;;;11.48;81.29;96900.05;1631669;85;21194;-80
2021/09/23 07:34:19;;;;;;;8.25;2.65;;;;;;;11.51;80.83;96891.40;1642136;86;21104;-80
2021/09/23 07:36:45;;;;;;;12.18;4.62;;;;;;;11.55;81.42;96887.48;1645026;86;21089;-81
2021/09/23 07:39:11;;;;;;;15.53;5.70;;;;;;;11.61;81.10;96880.76;1614032;86;21067;-81
2021/09/23 07:41:37;;;;;;;8.43;3.67;;;;;;;11.65;80.89;96876.31;1614716;87;20985;-80
2021/09/23 07:44:05;;;;;;;10.55;3.70;;;;;;;11.70;80.89;96869.27;1625101;87;22040;-81
2021/09/23 07:46:31;;;;;;;9.18;3.17;;;;;;;11.74;80.70;96871.86;1648022;86;22155;-81
2021/09/23 07:48:57;;;;;;;10.45;5.00;;;;;;;11.75;80.65;96870.88;1632566;87;21134;-81
2021/09/23 07:51:23;;;;;;;15.40;5.72;;;;;;;11.78;81.16;96877.52;1632922;87;21040;-81
2021/09/23 07:53:48;;;;;;;8.43;3.80;;;;;;;11.80;81.17;96875.08;1639113;86;21076;-81
2021/09/23 07:56:14;;;;;;;15.78;7.15;;;;;;;11.84;80.29;96869.83;1626552;87;21012;-81
2021/09/23 07:58:41;;;;;;;18.07;6.83;;;;;;;11.92;80.34;96866.35;1625887;87;21420;-80
2021/09/23 08:01:08;;;;;;;8.38;3.60;;;;;;;11.99;80.55;96861.55;1629454;86;21093;-81
2021/09/23 08:03:33;;;;;;;26.62;13.18;;;;;;;12.10;80.30;96859.49;1663202;85;21084;-81
2021/09/23 08:05:59;;;;;;;7.03;3.40;;;;;;;12.22;79.93;96863.27;1660035;85;21048;-80
2021/09/23 08:08:25;;;;;;;15.95;8.58;;;;;;;12.29;79.15;96871.48;1617001;86;21041;-81
2021/09/23 08:10:51;;;;;;;12.63;5.67;;;;;;;12.38;79.13;96867.49;1622452;86;21052;-81
2021/09/23 08:13:17;;;;;;;9.10;3.98;;;;;;;12.52;79.39;96867.45;1623207;87;21025;-81
2021/09/23 08:15:43;;;;;;;6.95;3.72;;;;;;;12.67;79.35;96873.95;1631966;87;20997;-81
2021/09/23 08:18:09;;;;;;;8.65;4.70;;;;;;;12.82;79.09;96872.12;1646462;85;21559;-81
2021/09/23 08:20:35;;;;;;;9.40;4.85;;;;;;;12.90;78.29;96864.20;1623581;87;21116;-81
2021/09/23 08:23:01;;;;;;;18.07;11.40;;;;;;;12.97;78.89;96862.95;1614362;87;21182;-81
2021/09/23 08:25:27;;;;;;;8.98;4.45;;;;;;;13.07;78.50;96863.48;1632117;86;21046;-81
2021/09/23 08:27:53;;;;;;;8.35;4.42;;;;;;;13.13;78.04;96858.81;1641987;86;21114;-81
2021/09/23 08:30:18;;;;;;;7.40;4.40;;;;;;;13.19;78.17;96863.83;1640311;86;21004;-81
2021/09/23 08:32:44;;;;;;;7.85;4.35;;;;;;;13.25;77.92;96857.86;1661183;85;21372;-81
2021/09/23 08:35:10;;;;;;;7.10;3.65;;;;;;;13.34;77.17;96855.91;1638562;86;21020;-81
2021/09/23 08:37:36;;;;;;;8.00;3.40;;;;;;;13.37;77.17;96846.43;1701252;84;21042;-81
2021/09/23 08:40:09;;;;;;;5.67;3.30;;;;;;;13.41;76.96;96844.55;1678621;83;21037;-81
2021/09/23 08:42:34;;;;;;;7.78;3.20;;;;;;;13.46;76.55;96842.67;1680928;84;21392;-80
2021/09/23 08:45:00;;;;;;;8.20;4.90;;;;;;;13.53;76.54;96843.55;1675812;83;21083;-81
2021/09/23 08:47:25;;;;;;;7.37;4.97;;;;;;;13.60;76.67;96850.92;1666926;84;21072;-81
2021/09/23 08:49:51;;;;;;;8.45;4.50;;;;;;;13.70;76.42;96850.11;1691070;84;21022;-81
2021/09/23 08:52:17;;;;;;;8.45;4.17;;;;;;;13.74;76.46;96859.17;1691706;84;21012;-81
2021/09/23 08:54:42;;;;;;;7.08;4.05;;;;;;;13.76;76.30;96849.84;1626706;84;21414;-81
2021/09/23 08:57:08;;;;;;;8.60;3.70;;;;;;;13.77;76.08;96848.84;1688389;84;21088;-81
2021/09/23 08:59:35;;;;;;;5.67;3.67;;;;;;;13.82;76.70;96849.07;1655641;85;21040;-81
2021/09/23 09:02:00;;;;;;;8.90;4.50;;;;;;;13.85;76.41;96851.33;1676508;83;20967;-81
2021/09/23 09:04:32;;;;;;;7.95;3.52;;;;;;;13.85;76.43;96850.52;1685160;84;21032;-81
2021/09/23 09:07:01;;;;;;;9.70;3.55;;;;;;;13.84;74.92;96854.94;1663002;84;21403;-81
2021/09/23 09:09:27;;;;;;;7.30;3.30;;;;;;;13.81;75.38;96856.10;1697815;84;21420;-81
2021/09/23 09:11:54;;;;;;;7.10;3.83;;;;;;;13.80;75.05;96851.88;1686760;83;21162;-81
2021/09/23 09:14:26;;;;;;;9.03;3.37;;;;;;;13.80;75.41;96843.23;1692741;83;21037;-81
2021/09/23 09:17:02;;;;;;;7.62;3.25;;;;;;;13.89;75.11;96847.33;1705203;83;21020;-81
2021/09/23 09:19:55;;;;;;;7.78;3.30;;;;;;;13.97;75.33;96841.13;1679657;84;21073;-81
2021/09/23 09:22:22;;;;;;;;;;;;;;;14.00;75.06;96843.39;1627734;87;21153;-81
2021/09/23 09:24:59;;;;;;;9.43;3.65;;;;;;;14.07;74.75;96843.72;1689564;83;20159;-81
2021/09/23 09:27:38;;;;;;;6.28;3.87;;;;;;;14.11;74.30;96846.75;1691177;84;21079;-82
2021/09/23 09:30:18;;;;;;;7.33;3.50;;;;;;;14.11;74.15;96840.22;1685661;83;21068;-81
2021/09/23 09:32:49;;;;;;;6.17;3.12;;;;;;;14.21;74.83;96838.08;1680942;84;20962;-82
2021/09/23 09:35:23;;;;;;;7.67;4.22;;;;;;;14.34;74.58;96844.69;1668588;84;21035;-82
2021/09/23 09:37:51;;;;;;;7.70;3.85;;;;;;;14.40;74.29;96842.59;1688207;83;21056;-81
2021/09/23 09:40:19;;;;;;;7.80;2.90;;;;;;;14.42;73.28;96837.16;1691834;83;21092;-81
2021/09/23 09:42:48;;;;;;;9.05;3.85;;;;;;;14.49;74.44;96833.32;1702332;84;21474;-82
2021/09/23 09:45:17;;;;;;;9.48;3.47;;;;;;;14.55;73.93;96835.95;1681781;84;21028;-81
2021/09/23 09:47:48;;;;;;;8.35;2.85;;;;;;;14.58;73.42;96832.13;1674620;84;21075;-81
2021/09/23 09:50:14;;;;;;;8.85;3.75;;;;;;;14.65;72.85;96835.59;1688047;84;21445;-82
2021/09/23 09:52:40;;;;;;;8.40;4.42;;;;;;;14.71;71.70;96830.37;1688637;84;20974;-83
2021/09/23 09:55:09;;;;;;;8.25;4.33;;;;;;;14.76;71.88;96837.63;1698472;83;20984;-82
2021/09/23 09:57:46;;;;;;;9.75;4.70;;;;;;;14.81;72.15;96838.36;1703178;84;21089;-81
2021/09/23 10:00:13;;;;;;;8.53;3.92;;;;;;;14.84;72.41;96827.00;1675477;83;21044;-82
2021/09/23 10:02:39;;;;;;;11.50;4.37;;;;;;;14.89;71.08;96827.20;1680111;84;21081;-82
2021/09/23 10:05:05;;;;;;;9.65;5.35;;;;;;;14.99;71.67;96829.45;1679119;84;21014;-82
2021/09/23 10:07:32;;;;;;;11.05;6.20;;;;;;;15.20;72.03;96823.23;1697337;84;20983;-82
2021/09/23 10:09:58;;;;;;;10.23;5.28;;;;;;;15.34;70.69;96814.39;1680940;83;21157;-82
2021/09/23 10:12:24;;;;;;;10.25;5.42;;;;;;;15.39;70.63;96800.69;1670549;83;21102;-82
2021/09/23 10:14:50;;;;;;;10.88;6.00;;;;;;;15.42;70.27;96794.54;1685098;84;21102;-82
2021/09/23 10:17:16;;;;;;;11.60;7.12;;;;;;;15.32;69.36;96781.06;1666838;85;21071;-82
2021/09/23 10:19:43;;;;;;;11.53;6.97;;;;;;;15.23;67.65;96777.83;1687108;84;21069;-82
2021/09/23 10:22:12;;;;;;;8.70;7.15;;;;;;;15.19;69.45;96773.20;1655034;85;21104;-82
2021/09/23 10:24:40;;;;;;;9.48;6.90;;;;;;;15.17;69.80;96773.41;1658212;84;21410;-82
2021/09/23 10:27:57;;;;;;;8.70;6.70;;;;;;;15.13;68.92;96770.89;1663769;85;21076;-82
2021/09/23 10:29:34;;;;;;;8.00;6.95;;;;;;;15.12;68.55;96770.56;1666292;84;21076;-81
2021/09/23 10:32:00;;;;;;;11.57;7.65;;;;;;;15.12;68.49;96766.64;1682824;84;21012;-82
2021/09/23 10:34:25;;;;;;;9.25;7.83;;;;;;;15.11;68.22;96770.27;1682248;84;21013;-82
2021/09/23 10:36:52;;;;;;;7.95;7.25;;;;;;;15.09;67.39;96768.85;1693175;84;21087;-82
2021/09/23 10:39:18;;;;;;;10.28;7.30;;;;;;;15.06;68.97;96760.10;1641452;85;21066;-82
2021/09/23 10:41:44;;;;;;;10.82;7.58;;;;;;;15.04;69.19;96755.58;1686345;84;21508;-82
2021/09/23 10:44:10;;;;;;;12.18;7.70;;;;;;;14.98;68.88;96750.14;1695527;83;21045;-82
2021/09/23 10:46:36;;;;;;;8.80;6.92;;;;;;;14.96;68.99;96754.74;1676253;84;21032;-81
2021/09/23 10:49:05;;;;;;;8.70;7.00;;;;;;;14.95;68.67;96752.33;1693955;84;21049;-82
2021/09/23 10:51:34;;;;;;;9.68;6.25;;;;;;;14.95;69.49;96762.30;1687082;84;21026;-82
2021/09/23 10:53:59;;;;;;;10.32;7.10;;;;;;;14.95;68.87;96773.27;1646261;84;21098;-82
2021/09/23 10:56:26;;;;;;;8.60;7.00;;;;;;;14.98;68.44;96759.30;1674899;84;21499;-82
2021/09/23 10:58:52;;;;;;;9.80;6.87;;;;;;;15.00;68.80;96754.67;1683656;84;21050;-82
2021/09/23 11:01:28;;;;;;;11.88;6.70;;;;;;;15.04;68.26;96751.14;1694734;84;21037;-82
2021/09/23 11:03:57;;;;;;;13.55;6.83;;;;;;;15.01;68.16;96748.43;1682827;84;21518;-82
2021/09/23 11:06:35;;;;;;;9.53;6.35;;;;;;;15.00;67.67;96724.58;1689464;83;21035;-82
2021/09/23 11:09:20;;;;;;;9.05;5.90;;;;;;;15.06;68.86;96714.30;1691085;84;20992;-82
2021/09/23 11:11:51;;;;;;;12.13;6.45;;;;;;;15.25;68.23;96714.80;1641342;86;21084;-82
2021/09/23 11:14:17;;;;;;;8.35;5.40;;;;;;;15.25;68.50;96720.03;1637124;86;21033;-82
2021/09/23 11:16:47;;;;;;;9.40;7.08;;;;;;;15.28;68.46;96727.47;1676865;84;21048;-82
2021/09/23 11:19:16;;;;;;;9.65;5.67;;;;;;;15.52;68.53;96721.62;1664449;83;21088;-82
2021/09/23 11:21:42;;;;;;;9.65;6.67;;;;;;;15.69;66.85;96714.66;1694808;84;21036;-82
2021/09/23 11:24:08;;;;;;;8.38;6.70;;;;;;;15.76;66.96;96712.81;1690782;83;21060;-82
2021/09/23 11:26:34;;;;;;;10.13;6.70;;;;;;;15.79;68.48;96716.36;1631800;85;21154;-81
2021/09/23 11:29:00;;;;;;;7.37;6.53;;;;;;;15.86;67.69;96707.97;1651453;85;21098;-82